createdAt,value
2019-05-21T00:02:06.445Z,98124.79
2019-05-21T00:04:34.234Z,98125.11
2019-05-21T00:07:01.947Z,98125.72
2019-05-21T00:09:29.766Z,98120.33
2019-05-21T00:11:57.488Z,98125.56
2019-05-21T00:14:25.268Z,98115.14
2019-05-21T00:16:53.073Z,98109.55
2019-05-21T00:19:20.763Z,98100.50
2019-05-21T00:21:48.489Z,98098.67
2019-05-21T00:24:16.256Z,98104.54
2019-05-21T00:26:43.981Z,98107.47
2019-05-21T00:30:06.812Z,98106.52
2019-05-21T00:33:29.767Z,98109.83
2019-05-21T00:36:56.710Z,98104.22
2019-05-21T00:40:19.052Z,98103.49
2019-05-21T00:42:47.343Z,98103.99
2019-05-21T00:45:15.167Z,98099.36
2019-05-21T00:47:43.006Z,98101.89
2019-05-21T00:50:11.753Z,98101.02
2019-05-21T00:52:39.713Z,98098.47
2019-05-21T00:55:08.265Z,98101.01
2019-05-21T00:57:36.277Z,98096.63
2019-05-21T01:00:05.798Z,98099.34
2019-05-21T01:02:33.968Z,98093.82
2019-05-21T01:05:01.820Z,98097.78
2019-05-21T01:07:29.750Z,98098.02
2019-05-21T01:09:57.598Z,98094.32
2019-05-21T01:12:25.522Z,98098.62
2019-05-21T01:14:53.249Z,98101.66
2019-05-21T01:17:21.084Z,98099.98
2019-05-21T01:19:49.077Z,98098.61
2019-05-21T01:22:17.210Z,98098.23
2019-05-21T01:24:45.037Z,98095.90
2019-05-21T01:27:12.829Z,98093.44
2019-05-21T01:29:40.579Z,98088.67
2019-05-21T01:32:08.476Z,98092.28
2019-05-21T01:34:36.337Z,98087.47
2019-05-21T01:37:05.250Z,98090.23
2019-05-21T01:39:33.044Z,98092.19
2019-05-21T01:42:00.775Z,98090.23
2019-05-21T01:44:28.554Z,98088.70
2019-05-21T01:46:56.388Z,98086.71
2019-05-21T01:49:24.127Z,98088.11
2019-05-21T01:51:51.904Z,98087.38
2019-05-21T01:54:19.665Z,98086.67
2019-05-21T01:56:47.460Z,98080.77
2019-05-21T01:59:15.225Z,98081.26
2019-05-21T02:01:44.074Z,98076.29
2019-05-21T02:04:14.476Z,98078.08
2019-05-21T02:06:42.597Z,98076.62
2019-05-21T02:09:10.327Z,98073.64
2019-05-21T02:11:38.111Z,98072.66
2019-05-21T02:14:05.904Z,98069.02
2019-05-21T02:16:35.008Z,98060.85
2019-05-21T02:19:02.739Z,98061.95
2019-05-21T02:21:30.555Z,98060.23
2019-05-21T02:24:03.620Z,98055.76
2019-05-21T02:26:31.406Z,98054.27
2019-05-21T02:28:59.329Z,98049.25
2019-05-21T02:31:27.110Z,98044.80
2019-05-21T02:33:55.054Z,98049.70
2019-05-21T02:36:22.819Z,98047.05
2019-05-21T02:38:50.856Z,98048.66
2019-05-21T02:41:18.574Z,98048.59
2019-05-21T02:43:56.494Z,98021.98
2019-05-21T02:46:24.296Z,98047.22
2019-05-21T02:48:52.032Z,98045.83
2019-05-21T02:51:19.782Z,98045.72
2019-05-21T02:53:47.596Z,98048.16
2019-05-21T02:56:15.408Z,98046.01
2019-05-21T02:58:43.201Z,98048.48
2019-05-21T03:01:36.250Z,98045.78
2019-05-21T03:04:04.399Z,98045.45
2019-05-21T03:06:34.975Z,98044.79
2019-05-21T03:09:03.587Z,98049.03
2019-05-21T03:11:31.353Z,98051.31
2019-05-21T03:13:59.251Z,98047.83
2019-05-21T03:16:26.995Z,98053.30
2019-05-21T03:18:54.783Z,98053.89
2019-05-21T03:21:22.568Z,98064.00
2019-05-21T03:23:50.457Z,98065.09
2019-05-21T03:26:18.216Z,98054.72
2019-05-21T03:28:46.026Z,98060.80
2019-05-21T03:31:15.937Z,98060.47
2019-05-21T03:33:44.057Z,98058.86
2019-05-21T03:36:12.218Z,98063.27
2019-05-21T03:38:40.000Z,98062.63
2019-05-21T03:41:07.826Z,98055.83
2019-05-21T03:43:35.622Z,98056.03
2019-05-21T03:46:03.465Z,98054.95
2019-05-21T03:48:31.183Z,98062.39
2019-05-21T03:50:58.993Z,98058.05
2019-05-21T03:53:26.796Z,98059.63
2019-05-21T03:55:54.561Z,98064.66
2019-05-21T03:58:22.399Z,98063.16
2019-05-21T04:00:50.142Z,98065.77
2019-05-21T04:03:17.890Z,98062.06
2019-05-21T04:05:46.722Z,98058.09
2019-05-21T04:08:14.488Z,98062.22
2019-05-21T04:10:42.312Z,98064.16
2019-05-21T04:13:10.100Z,98062.73
2019-05-21T04:15:59.610Z,98059.02
2019-05-21T04:18:39.361Z,98061.78
2019-05-21T04:21:07.475Z,98062.39
2019-05-21T04:23:35.241Z,98062.32
2019-05-21T04:26:03.029Z,98063.48
2019-05-21T04:28:32.637Z,98060.33
2019-05-21T04:31:00.676Z,98064.37
2019-05-21T04:33:28.482Z,98069.22
2019-05-21T04:35:56.257Z,98066.34
2019-05-21T04:38:23.973Z,98064.14
2019-05-21T04:40:53.726Z,98066.89
2019-05-21T04:43:21.606Z,98062.73
2019-05-21T04:45:49.423Z,98070.03
2019-05-21T04:48:17.548Z,98065.63
2019-05-21T04:50:45.276Z,98067.16
2019-05-21T04:53:13.071Z,98070.59
2019-05-21T04:55:40.901Z,98067.66
2019-05-21T04:58:08.647Z,98067.27
2019-05-21T05:00:36.475Z,98064.13
2019-05-21T05:03:04.377Z,98067.49
2019-05-21T05:05:32.566Z,98067.43
2019-05-21T05:08:00.311Z,98063.99
2019-05-21T05:10:28.163Z,98060.20
2019-05-21T05:12:55.978Z,98059.86
2019-05-21T05:15:29.671Z,98063.19
2019-05-21T05:17:57.406Z,98064.07
2019-05-21T05:20:25.284Z,98073.14
2019-05-21T05:22:53.219Z,98065.30
2019-05-21T05:25:21.017Z,98074.72
2019-05-21T05:28:05.760Z,98074.61
2019-05-21T05:30:44.305Z,98077.14
2019-05-21T05:33:12.578Z,98074.66
2019-05-21T05:35:40.618Z,98074.50
2019-05-21T05:38:08.396Z,98072.34
2019-05-21T05:40:36.212Z,98069.69
2019-05-21T05:43:04.028Z,98075.25
2019-05-21T05:45:31.936Z,98074.78
2019-05-21T05:47:59.713Z,98081.59
2019-05-21T05:50:31.105Z,98078.70
2019-05-21T05:52:58.880Z,98087.55
2019-05-21T05:55:26.721Z,98086.95
2019-05-21T05:57:54.854Z,98092.59
2019-05-21T06:00:22.784Z,98092.80
2019-05-21T06:02:50.587Z,98091.79
2019-05-21T06:05:18.485Z,98098.67
2019-05-21T06:07:58.653Z,98101.39
2019-05-21T06:10:16.421Z,98104.77
2019-05-21T06:12:44.244Z,98106.53
2019-05-21T06:15:12.110Z,98108.50
2019-05-21T06:17:39.849Z,98111.88
2019-05-21T06:20:08.286Z,98110.47
2019-05-21T06:23:06.993Z,98113.53
2019-05-21T06:25:34.862Z,98113.63
2019-05-21T06:28:02.604Z,98117.53
2019-05-21T06:30:30.622Z,98115.27
2019-05-21T06:32:58.576Z,98117.02
2019-05-21T06:35:26.362Z,98120.33
2019-05-21T06:37:54.197Z,98124.28
2019-05-21T06:40:22.163Z,98129.36
2019-05-21T06:43:09.659Z,98133.45
2019-05-21T06:45:37.435Z,98134.41
2019-05-21T06:48:05.351Z,98137.06
2019-05-21T06:50:37.426Z,98140.13
2019-05-21T06:53:10.207Z,98144.83
2019-05-21T06:55:37.952Z,98146.23
2019-05-21T06:58:05.768Z,98151.94
2019-05-21T07:00:33.525Z,98153.73
2019-05-21T07:03:01.666Z,98152.10
2019-05-21T07:05:29.483Z,98152.27
2019-05-21T07:07:57.275Z,98165.95
2019-05-21T07:10:25.101Z,98157.36
2019-05-21T07:12:52.874Z,98161.40
2019-05-21T07:15:20.684Z,98158.82
2019-05-21T07:17:48.395Z,98162.82
2019-05-21T07:20:16.898Z,98165.75
2019-05-21T07:22:44.795Z,98170.17
2019-05-21T07:25:14.463Z,98167.87
2019-05-21T07:27:42.421Z,98170.82
2019-05-21T07:30:10.386Z,98175.91
2019-05-21T07:32:38.285Z,98186.70
2019-05-21T07:35:06.189Z,98187.56
2019-05-21T07:37:34.314Z,98196.38
2019-05-21T07:40:02.139Z,98198.77
2019-05-21T07:42:29.953Z,98202.13
2019-05-21T07:44:57.859Z,98208.36
2019-05-21T07:47:25.595Z,98219.56
2019-05-21T07:49:53.425Z,98214.55
2019-05-21T07:52:21.435Z,98222.21
2019-05-21T07:54:49.191Z,98220.77
2019-05-21T07:57:16.988Z,98226.62
2019-05-21T07:59:44.706Z,98228.03
2019-05-21T08:02:12.535Z,98232.59
2019-05-21T08:04:40.339Z,98245.11
2019-05-21T08:07:08.074Z,98245.52
2019-05-21T08:09:35.827Z,98245.02
2019-05-21T08:12:22.838Z,98248.84
2019-05-21T08:14:33.688Z,98261.80
2019-05-21T08:17:01.518Z,98262.35
2019-05-21T08:19:31.330Z,98268.43
2019-05-21T08:21:59.093Z,98266.53
2019-05-21T08:24:28.696Z,98264.89
2019-05-21T08:26:56.533Z,98267.91
2019-05-21T08:29:24.321Z,98269.14
2019-05-21T08:31:52.155Z,98270.14
2019-05-21T08:34:20.284Z,98271.92
2019-05-21T08:36:48.007Z,98281.07
2019-05-21T08:39:27.614Z,98288.52
2019-05-21T08:41:46.911Z,98290.80
2019-05-21T08:44:14.910Z,98288.21
2019-05-21T08:46:44.712Z,98291.45
2019-05-21T08:49:12.475Z,98298.79
2019-05-21T08:51:40.346Z,98305.14
2019-05-21T08:54:08.445Z,98305.35
2019-05-21T08:56:36.192Z,98305.69
2019-05-21T08:59:04.025Z,98305.92
2019-05-21T09:01:32.033Z,98305.39
2019-05-21T09:03:59.888Z,98308.59
2019-05-21T09:06:27.646Z,98313.20
2019-05-21T09:08:55.511Z,98309.81
2019-05-21T09:11:23.309Z,98310.81
2019-05-21T09:13:51.115Z,98312.28
2019-05-21T09:16:18.914Z,98305.27
2019-05-21T09:18:46.648Z,98307.50
2019-05-21T09:21:14.716Z,98310.89
2019-05-21T09:23:42.591Z,98315.31
2019-05-21T09:26:10.529Z,98315.23
2019-05-21T09:28:38.353Z,98323.19
2019-05-21T09:31:06.152Z,98320.27
2019-05-21T09:33:39.145Z,98327.13
2019-05-21T09:36:06.943Z,98333.03
2019-05-21T09:38:34.782Z,98337.23
2019-05-21T09:41:02.604Z,98327.87
2019-05-21T09:43:30.329Z,98330.25
2019-05-21T09:45:58.188Z,98332.95
2019-05-21T09:48:26.100Z,98338.73
2019-05-21T09:50:53.901Z,98344.90
2019-05-21T09:53:21.849Z,98345.25
2019-05-21T09:55:49.658Z,98346.50
2019-05-21T09:58:26.152Z,98350.02
2019-05-21T10:01:16.325Z,98352.45
2019-05-21T10:03:49.731Z,98360.66
2019-05-21T10:06:17.853Z,98353.91
2019-05-21T10:08:45.705Z,98360.06
2019-05-21T10:11:13.474Z,98357.95
2019-05-21T10:13:41.634Z,98356.92
2019-05-21T10:16:09.456Z,98360.15
2019-05-21T10:18:37.223Z,98388.84
2019-05-21T10:21:21.647Z,98386.45
2019-05-21T10:23:49.722Z,98390.21
2019-05-21T10:26:17.926Z,98395.02
2019-05-21T10:28:45.702Z,98405.98
2019-05-21T10:31:14.247Z,98397.02
2019-05-21T10:33:42.031Z,98403.22
2019-05-21T10:36:09.896Z,98415.05
2019-05-21T10:38:37.662Z,98419.44
2019-05-21T10:41:05.648Z,98425.71
2019-05-21T10:43:33.447Z,98432.96
2019-05-21T10:46:02.805Z,98423.16
2019-05-21T10:48:30.549Z,98420.37
2019-05-21T10:50:58.360Z,98419.73
2019-05-21T10:53:26.330Z,98417.38
2019-05-21T10:55:54.278Z,98417.88
2019-05-21T10:58:22.025Z,98416.55
2019-05-21T11:00:51.749Z,98419.73
2019-05-21T11:04:12.508Z,98422.63
2019-05-21T11:06:41.518Z,98437.22
2019-05-21T11:09:15.141Z,98436.45
2019-05-21T11:11:43.010Z,98445.77
2019-05-21T11:14:10.881Z,98455.81
2019-05-21T11:16:39.078Z,98452.83
2019-05-21T11:19:06.859Z,98455.30
2019-05-21T11:21:35.499Z,98457.62
2019-05-21T11:24:08.392Z,98457.11
2019-05-21T11:26:36.318Z,98461.09
2019-05-21T11:29:04.326Z,98464.66
2019-05-21T11:31:32.266Z,98467.38
2019-05-21T11:34:00.220Z,98472.42
2019-05-21T11:36:28.002Z,98473.61
2019-05-21T11:38:56.015Z,98479.63
2019-05-21T11:41:23.826Z,98488.02
2019-05-21T11:43:51.947Z,98490.83
2019-05-21T11:46:20.054Z,98494.97
2019-05-21T11:48:47.825Z,98495.67
2019-05-21T11:51:17.661Z,98511.98
2019-05-21T11:53:50.727Z,98504.48
2019-05-21T11:56:18.639Z,98509.41
2019-05-21T11:58:46.315Z,98513.36
2019-05-21T12:01:14.216Z,98516.41
2019-05-21T12:03:42.051Z,98523.56
2019-05-21T12:06:10.935Z,98523.16
2019-05-21T12:08:38.707Z,98521.89
2019-05-21T12:11:06.776Z,98524.02
2019-05-21T12:13:34.927Z,98521.28
2019-05-21T12:16:02.830Z,98529.18
2019-05-21T12:18:30.659Z,98536.63
2019-05-21T12:20:58.507Z,98545.22
2019-05-21T12:23:26.304Z,98550.34
2019-05-21T12:25:54.106Z,98543.09
2019-05-21T12:28:21.935Z,98548.48
2019-05-21T12:30:49.724Z,98545.64
2019-05-21T12:33:17.678Z,98548.75
2019-05-21T12:35:45.421Z,98561.91
2019-05-21T12:38:13.239Z,98564.62
2019-05-21T12:40:40.999Z,98570.33
2019-05-21T12:43:08.828Z,98581.23
2019-05-21T12:45:36.598Z,98580.12
2019-05-21T12:48:04.392Z,98585.70
2019-05-21T12:50:32.223Z,98580.11
2019-05-21T12:53:00.012Z,98587.56
2019-05-21T12:55:27.761Z,98590.45
2019-05-21T12:57:55.581Z,98585.91
2019-05-21T13:00:29.728Z,98596.02
2019-05-21T13:03:12.700Z,98598.95
2019-05-21T13:05:40.493Z,98593.17
2019-05-21T13:08:08.278Z,98591.99
2019-05-21T13:10:36.128Z,98593.44
2019-05-21T13:13:04.208Z,98598.98
2019-05-21T13:15:31.998Z,98600.00
2019-05-21T13:17:59.745Z,98603.67
2019-05-21T13:20:27.947Z,98610.09
2019-05-21T13:22:55.856Z,98611.31
2019-05-21T13:25:23.631Z,98613.73
2019-05-21T13:27:57.272Z,98618.35
2019-05-21T13:30:23.488Z,98626.89
2019-05-21T13:32:51.315Z,98633.15
2019-05-21T13:35:19.251Z,98633.77
2019-05-21T13:37:47.066Z,98640.05
2019-05-21T13:40:17.198Z,98637.06
2019-05-21T13:42:44.921Z,98643.28
2019-05-21T13:45:12.912Z,98646.89
2019-05-21T13:47:40.728Z,98650.88
2019-05-21T13:50:09.197Z,98652.08
2019-05-21T13:52:36.990Z,98654.72
2019-05-21T13:55:05.122Z,98659.58
2019-05-21T13:57:33.258Z,98663.41
2019-05-21T14:00:01.113Z,98663.12
2019-05-21T14:02:29.008Z,98661.08
2019-05-21T14:04:57.090Z,98667.73
2019-05-21T14:07:24.875Z,98672.23
2019-05-21T14:10:12.655Z,98676.78
2019-05-21T14:12:22.491Z,98674.77
2019-05-21T14:14:50.624Z,98670.33
2019-05-21T14:17:18.819Z,98674.83
2019-05-21T14:19:47.105Z,98668.38
2019-05-21T14:22:15.160Z,98667.66
2019-05-21T14:24:43.007Z,98674.34
2019-05-21T14:27:10.910Z,98673.41
2019-05-21T14:29:38.706Z,98673.15
2019-05-21T14:32:06.575Z,98676.63
2019-05-21T14:34:34.332Z,98683.65
2019-05-21T14:37:02.539Z,98695.13
2019-05-21T14:39:30.330Z,98701.59
2019-05-21T14:42:02.093Z,98697.26
2019-05-21T14:44:31.622Z,98705.33
2019-05-21T14:46:59.765Z,98713.23
2019-05-21T14:49:28.027Z,98708.61
2019-05-21T14:51:57.876Z,98711.94
2019-05-21T14:54:27.234Z,98718.75
2019-05-21T14:56:55.594Z,98727.39
2019-05-21T14:59:23.802Z,98724.07
2019-05-21T15:01:52.388Z,98727.01
2019-05-21T15:04:21.284Z,98730.27
2019-05-21T15:06:51.120Z,98732.44
2019-05-21T15:09:20.012Z,98728.58
2019-05-21T15:11:54.581Z,98731.00
2019-05-21T15:14:22.839Z,98732.34
2019-05-21T15:16:51.143Z,98736.63
2019-05-21T15:19:19.618Z,98736.64
2019-05-21T15:21:53.076Z,98744.25
2019-05-21T15:24:24.889Z,98748.96
2019-05-21T15:26:55.823Z,98744.05
2019-05-21T15:29:24.421Z,98749.80
2019-05-21T15:31:52.814Z,98753.69
2019-05-21T15:34:21.161Z,98754.04
2019-05-21T15:36:49.461Z,98763.58
2019-05-21T15:39:17.770Z,98763.66
2019-05-21T15:41:46.105Z,98770.03
2019-05-21T15:44:14.525Z,98767.27
2019-05-21T15:46:48.161Z,98771.41
2019-05-21T15:49:13.350Z,98775.13
2019-05-21T15:51:41.849Z,98780.22
2019-05-21T15:54:09.742Z,98781.38
2019-05-21T15:56:37.829Z,98784.03
2019-05-21T15:59:05.782Z,98782.61
2019-05-21T16:01:33.639Z,98790.49
2019-05-21T16:04:01.411Z,98786.61
2019-05-21T16:06:29.268Z,98782.23
2019-05-21T16:08:57.182Z,98786.61
2019-05-21T16:11:28.711Z,98788.05
2019-05-21T16:13:55.436Z,98792.03
2019-05-21T16:16:23.297Z,98793.25
2019-05-21T16:18:51.138Z,98790.77
2019-05-21T16:21:18.972Z,98795.63
2019-05-21T16:23:46.959Z,98791.30
2019-05-21T16:26:15.044Z,98790.91
2019-05-21T16:28:43.239Z,98791.03
2019-05-21T16:31:11.797Z,98791.24
2019-05-21T16:33:40.193Z,98794.64
2019-05-21T16:36:08.457Z,98795.63
2019-05-21T16:38:36.610Z,98808.20
2019-05-21T16:41:04.599Z,98807.75
2019-05-21T16:43:32.535Z,98818.08
2019-05-21T16:46:00.378Z,98814.80
2019-05-21T16:48:28.741Z,98816.64
2019-05-21T16:50:58.641Z,98820.57
2019-05-21T16:53:27.308Z,98815.25
2019-05-21T16:55:55.661Z,98824.15
2019-05-21T16:58:23.902Z,98825.55
2019-05-21T17:00:52.333Z,98828.30
2019-05-21T17:03:20.869Z,98830.39
2019-05-21T17:05:49.176Z,98835.39
2019-05-21T17:08:17.508Z,98841.47
2019-05-21T17:10:45.309Z,98838.39
2019-05-21T17:13:13.403Z,98843.48
2019-05-21T17:15:41.474Z,98848.55
2019-05-21T17:18:09.230Z,98847.77
2019-05-21T17:20:37.055Z,98848.62
2019-05-21T17:23:05.019Z,98853.49
2019-05-21T17:25:32.835Z,98856.20
2019-05-21T17:28:03.152Z,98836.16
2019-05-21T17:30:31.018Z,98861.00
2019-05-21T17:32:58.932Z,98859.72
2019-05-21T17:35:27.214Z,98860.94
2019-05-21T17:37:56.900Z,98862.66
2019-05-21T17:40:24.722Z,98866.03
2019-05-21T17:42:52.682Z,98871.08
2019-05-21T17:45:20.548Z,98871.02
2019-05-21T17:47:48.379Z,98876.28
2019-05-21T17:50:16.938Z,98879.95
2019-05-21T17:52:44.782Z,98876.55
2019-05-21T17:55:14.472Z,98887.30
2019-05-21T17:57:42.326Z,98888.22
2019-05-21T18:00:10.877Z,98891.25
2019-05-21T18:02:38.906Z,98894.00
2019-05-21T18:05:09.067Z,98889.80
2019-05-21T18:07:39.030Z,98897.77
2019-05-21T18:10:08.153Z,98901.50
2019-05-21T18:12:36.908Z,98906.17
2019-05-21T18:15:09.687Z,98901.34
2019-05-21T18:17:38.234Z,98908.18
2019-05-21T18:20:08.595Z,98909.72
2019-05-21T18:22:38.418Z,98916.58
2019-05-21T18:25:06.920Z,98921.50
2019-05-21T18:27:34.774Z,98926.75
2019-05-21T18:30:03.900Z,98928.05
2019-05-21T18:32:32.447Z,98933.51
2019-05-21T18:35:00.316Z,98940.66
2019-05-21T18:37:28.887Z,98942.44
2019-05-21T18:39:56.814Z,98951.89
2019-05-21T18:42:24.841Z,98957.91
2019-05-21T18:44:52.683Z,98963.77
2019-05-21T18:47:20.535Z,98971.34
2019-05-21T18:49:48.411Z,98975.53
2019-05-21T18:52:16.310Z,98981.69
2019-05-21T18:54:47.666Z,98985.17
2019-05-21T18:57:13.902Z,98982.78
2019-05-21T18:59:41.869Z,98987.05
2019-05-21T19:02:11.524Z,98991.95
2019-05-21T19:04:39.766Z,98997.80
2019-05-21T19:07:10.681Z,99000.84
2019-05-21T19:09:37.305Z,98999.18
2019-05-21T19:12:05.332Z,99005.95
2019-05-21T19:14:33.158Z,99009.34
2019-05-21T19:17:01.297Z,99014.49
2019-05-21T19:19:29.181Z,99015.69
2019-05-21T19:21:57.081Z,99026.64
2019-05-21T19:24:25.040Z,99028.02
2019-05-21T19:26:52.858Z,99029.88
2019-05-21T19:29:20.647Z,99039.17
2019-05-21T19:31:49.378Z,99039.51
2019-05-21T19:34:18.292Z,99046.16
2019-05-21T19:36:49.292Z,99050.22
2019-05-21T19:39:17.394Z,99058.89
2019-05-21T19:41:45.973Z,99052.38
2019-05-21T19:44:14.487Z,99059.27
2019-05-21T19:46:42.862Z,99060.38
2019-05-21T19:49:12.599Z,99064.20
2019-05-21T19:51:42.741Z,99061.62
2019-05-21T19:54:11.325Z,99068.50
2019-05-21T19:56:39.608Z,99068.67
2019-05-21T19:59:08.109Z,99076.65
2019-05-21T20:01:45.045Z,99073.66
2019-05-21T20:04:15.173Z,99077.85
2019-05-21T20:06:44.484Z,99073.20
2019-05-21T20:09:15.980Z,99080.22
2019-05-21T20:11:44.647Z,99082.16
2019-05-21T20:14:18.492Z,99085.77
2019-05-21T20:16:46.850Z,99085.06
2019-05-21T20:19:19.452Z,99084.70
2019-05-21T20:21:50.815Z,99082.29
2019-05-21T20:24:19.919Z,99084.49
2019-05-21T20:26:48.525Z,99084.32
2019-05-21T20:29:16.738Z,99088.42
2019-05-21T20:31:45.985Z,99086.60
2019-05-21T20:34:14.767Z,99094.56
2019-05-21T20:36:43.912Z,99087.23
2019-05-21T20:39:14.684Z,99079.88
2019-05-21T20:41:43.683Z,99087.67
2019-05-21T20:44:13.711Z,99090.82
2019-05-21T20:46:41.789Z,99095.52
2019-05-21T20:49:10.062Z,99091.31
2019-05-21T20:51:38.227Z,99088.95
2019-05-21T20:54:07.446Z,99088.70
2019-05-21T20:56:35.198Z,99090.84
2019-05-21T20:59:03.567Z,99089.64
2019-05-21T21:01:31.886Z,99099.38
2019-05-21T21:04:01.144Z,99093.78
2019-05-21T21:06:35.661Z,99093.53
2019-05-21T21:09:06.243Z,99096.55
2019-05-21T21:11:34.108Z,99094.69
2019-05-21T21:14:17.418Z,99094.28
2019-05-21T21:16:34.554Z,99094.66
2019-05-21T21:19:02.434Z,99095.52
2019-05-21T21:21:30.415Z,99093.06
2019-05-21T21:23:59.234Z,99095.30
2019-05-21T21:26:27.329Z,99100.92
2019-05-21T21:28:55.168Z,99101.59
2019-05-21T21:31:23.262Z,99102.16
2019-05-21T21:33:51.107Z,99103.61
2019-05-21T21:36:18.948Z,99111.97
2019-05-21T21:38:47.606Z,99112.55
2019-05-21T21:41:15.584Z,99115.03
2019-05-21T21:43:43.513Z,99113.58
2019-05-21T21:46:11.287Z,99112.45
2019-05-21T21:48:39.678Z,99116.17
2019-05-21T21:51:09.289Z,99115.67
2019-05-21T21:53:38.476Z,99124.88
2019-05-21T21:56:06.327Z,99118.36
2019-05-21T21:58:34.120Z,99120.35
2019-05-21T22:01:43.656Z,99125.56
2019-05-21T22:04:31.510Z,99127.59
2019-05-21T22:06:59.708Z,99130.22
2019-05-21T22:09:39.406Z,99134.41
2019-05-21T22:12:14.245Z,99136.59
2019-05-21T22:14:51.721Z,99142.34
2019-05-21T22:17:17.039Z,99143.86
2019-05-21T22:19:44.961Z,99142.57
2019-05-21T22:22:14.501Z,99142.00
2019-05-21T22:24:43.204Z,99138.32
2019-05-21T22:27:11.264Z,99141.17
2019-05-21T22:29:39.291Z,99143.89
2019-05-21T22:32:07.231Z,99144.34
2019-05-21T22:34:37.238Z,99144.53
2019-05-21T22:37:07.594Z,99149.61
2019-05-21T22:39:37.956Z,99153.20
2019-05-21T22:42:07.071Z,99156.77
2019-05-21T22:44:35.068Z,99160.72
2019-05-21T22:47:04.753Z,99154.85
2019-05-21T22:49:33.944Z,99168.55
2019-05-21T22:52:02.134Z,99165.23
2019-05-21T22:54:29.977Z,99175.83
2019-05-21T22:56:57.870Z,99175.33
2019-05-21T22:59:25.777Z,99180.06
2019-05-21T23:01:56.360Z,99172.42
2019-05-21T23:04:24.230Z,99176.23
2019-05-21T23:06:52.170Z,99177.72
2019-05-21T23:09:20.504Z,99181.23
2019-05-21T23:11:48.285Z,99183.69
2019-05-21T23:14:16.731Z,99174.97
2019-05-21T23:16:44.650Z,99173.35
2019-05-21T23:19:15.013Z,99173.78
2019-05-21T23:21:43.678Z,99175.88
2019-05-21T23:24:20.759Z,99173.95
2019-05-21T23:26:49.118Z,99177.30
2019-05-21T23:29:17.854Z,99182.77
2019-05-21T23:31:45.897Z,99179.05
2019-05-21T23:34:28.991Z,99176.20
2019-05-21T23:36:58.648Z,99178.75
2019-05-21T23:39:31.393Z,99179.31
2019-05-21T23:42:00.022Z,99181.03
2019-05-21T23:44:27.828Z,99187.27
2019-05-21T23:46:55.939Z,99188.12
2019-05-21T23:49:23.786Z,99188.78
2019-05-21T23:51:51.767Z,99185.41
2019-05-21T23:54:19.632Z,99187.25
2019-05-21T23:56:47.715Z,99189.47
2019-05-21T23:59:15.545Z,99188.34
